Time;durP1;ratioP1;P1;durP2;ratioP2;P2;SDS_P1;SDS_P2;PMS_P1;PMS_P2;Temp;Humidity;BMP_temperature;BMP_pressure;BME280_temperature;BME280_humidity;BME280_pressure;Samples;Min_cycle;Max_cycle;Signal;HPM_P1;HPM_P2
2021/06/16 00:01:30;;;;;;;14.20;12.73;;;;;;;19.63;64.96;100650.73;128217;1098;24253;-82
2021/06/16 00:04:05;;;;;;;15.55;12.73;;;;;;;19.60;64.87;100664.57;128260;1095;23219;-83
2021/06/16 00:06:36;;;;;;;13.98;12.55;;;;;;;19.56;64.73;100677.59;128247;1095;22646;-81
2021/06/16 00:09:06;;;;;;;14.78;11.80;;;;;;;19.53;64.85;100667.30;128241;1098;22367;-82
2021/06/16 00:11:36;;;;;;;15.43;13.93;;;;;;;19.49;64.85;100666.08;128216;1098;22383;-82
2021/06/16 00:14:07;;;;;;;18.58;15.33;;;;;;;19.46;64.72;100666.52;128211;1099;23275;-82
2021/06/16 00:16:37;;;;;;;15.60;14.10;;;;;;;19.42;64.85;100659.95;128402;1098;22378;-82
2021/06/16 00:19:07;;;;;;;16.53;12.85;;;;;;;19.37;64.93;100663.30;128502;1095;22379;-82
2021/06/16 00:21:37;;;;;;;14.30;12.88;;;;;;;19.35;65.17;100664.55;128275;1098;22353;-82
2021/06/16 00:24:08;;;;;;;15.50;12.30;;;;;;;19.31;65.11;100666.84;128267;1098;22511;-83
2021/06/16 00:26:38;;;;;;;12.38;10.93;;;;;;;19.28;65.53;100672.64;128206;1098;22406;-83
2021/06/16 00:29:09;;;;;;;16.70;13.95;;;;;;;19.25;65.40;100670.39;128473;1098;22458;-83
2021/06/16 00:31:44;;;;;;;14.23;12.93;;;;;;;19.19;65.26;100672.09;128264;1098;22443;-82
2021/06/16 00:34:14;;;;;;;15.08;13.48;;;;;;;19.13;65.52;100670.28;128273;1098;23009;-82
2021/06/16 00:36:45;;;;;;;14.83;13.53;;;;;;;19.10;65.72;100668.03;128262;1098;22461;-83
2021/06/16 00:39:15;;;;;;;16.50;14.75;;;;;;;19.08;66.03;100672.77;127897;1101;24467;-81
2021/06/16 00:41:45;;;;;;;15.73;14.20;;;;;;;19.05;65.96;100678.55;127854;1101;22446;-82
2021/06/16 00:44:15;;;;;;;16.30;13.33;;;;;;;19.00;66.16;100667.69;128179;1101;22398;-81
2021/06/16 00:46:45;;;;;;;15.25;13.75;;;;;;;18.98;66.28;100672.42;128030;1098;22381;-82
2021/06/16 00:49:15;;;;;;;15.43;13.83;;;;;;;18.96;66.48;100671.81;128232;1098;22817;-82
2021/06/16 00:51:45;;;;;;;15.15;12.95;;;;;;;18.93;66.67;100673.08;128235;1098;22850;-83
2021/06/16 00:54:15;;;;;;;14.83;13.35;;;;;;;18.91;66.58;100668.97;128220;1098;23302;-82
2021/06/16 00:56:46;;;;;;;18.60;13.73;;;;;;;18.87;66.92;100673.94;128319;1095;22825;-81
2021/06/16 00:59:16;;;;;;;14.13;12.83;;;;;;;18.81;66.87;100686.31;128240;1098;22487;-82
2021/06/16 01:01:49;;;;;;;13.40;12.28;;;;;;;18.79;66.97;100675.02;128077;1098;24565;-80
2021/06/16 01:04:24;;;;;;;13.75;11.33;;;;;;;18.77;67.06;100676.25;127951;1098;22400;-81
2021/06/16 01:07:08;;;;;;;13.53;12.13;;;;;;;18.74;67.08;100680.17;127985;1098;22395;-81
2021/06/16 01:09:56;;;;;;;14.68;12.63;;;;;;;18.71;67.27;100671.72;127951;1095;22369;-81
2021/06/16 01:12:36;;;;;;;13.43;11.93;;;;;;;18.69;67.15;100674.59;127866;1098;24202;-82
2021/06/16 01:15:19;;;;;;;15.45;13.85;;;;;;;18.67;67.26;100676.67;127945;1098;22471;-82
2021/06/16 01:17:54;;;;;;;13.75;12.55;;;;;;;18.64;67.43;100681.64;128068;1095;22350;-82
2021/06/16 01:20:43;;;;;;;14.65;13.13;;;;;;;18.61;67.39;100672.17;127989;1098;22381;-82
2021/06/16 01:23:49;;;;;;;13.18;11.70;;;;;;;18.57;67.36;100687.83;127959;1098;22402;-81
2021/06/16 01:26:38;;;;;;;13.35;11.75;;;;;;;18.50;67.21;100686.22;127923;1101;22391;-82
2021/06/16 01:29:20;;;;;;;14.48;13.08;;;;;;;18.46;67.24;100684.98;127393;1101;22383;-82
2021/06/16 01:31:51;;;;;;;15.08;12.00;;;;;;;18.45;67.93;100680.67;127519;1101;24520;-82
2021/06/16 01:34:24;;;;;;;13.05;11.75;;;;;;;18.42;67.89;100681.09;127559;1101;22385;-82
2021/06/16 01:36:58;;;;;;;18.05;12.25;;;;;;;18.40;67.67;100685.85;127494;1101;22366;-83
2021/06/16 01:39:35;;;;;;;13.98;12.18;;;;;;;18.37;67.79;100681.73;127425;1102;22413;-82
2021/06/16 01:42:16;;;;;;;14.13;12.50;;;;;;;18.35;67.94;100691.81;127406;1101;22494;-83
2021/06/16 01:44:50;;;;;;;20.18;18.30;;;;;;;18.32;67.98;100686.88;127540;1101;22369;-82
2021/06/16 01:47:23;;;;;;;15.20;13.43;;;;;;;18.28;68.14;100678.46;127882;1101;22527;-82
2021/06/16 01:49:56;;;;;;;16.70;14.80;;;;;;;18.25;68.12;100684.23;127552;1101;22416;-82
2021/06/16 01:52:27;;;;;;;13.73;12.13;;;;;;;18.21;68.20;100688.36;127601;1101;22542;-82
2021/06/16 01:54:59;;;;;;;18.48;15.78;;;;;;;18.17;68.27;100695.16;128047;1098;22468;-82
2021/06/16 01:57:33;;;;;;;15.43;13.43;;;;;;;18.14;68.59;100694.77;127963;1095;22374;-82
2021/06/16 02:00:05;;;;;;;14.45;13.05;;;;;;;18.09;68.79;100693.55;128107;1095;22372;-82
2021/06/16 02:02:37;;;;;;;13.45;12.05;;;;;;;18.06;68.87;100693.96;127888;1098;24271;-82
2021/06/16 02:05:09;;;;;;;17.10;15.33;;;;;;;18.02;68.83;100697.23;128190;1095;24522;-81
2021/06/16 02:07:43;;;;;;;15.98;13.20;;;;;;;18.00;68.81;100700.13;128151;1095;22350;-82
2021/06/16 02:10:16;;;;;;;17.98;12.93;;;;;;;17.99;68.97;100703.00;128147;1095;22418;-82
2021/06/16 02:12:49;;;;;;;13.88;12.45;;;;;;;17.95;68.86;100701.78;127994;1098;24183;-81
2021/06/16 02:15:22;;;;;;;15.05;13.28;;;;;;;17.90;69.09;100701.59;127969;1098;22407;-81
2021/06/16 02:17:55;;;;;;;15.88;12.30;;;;;;;17.82;69.34;100698.08;127924;1098;23128;-81
2021/06/16 02:20:25;;;;;;;15.90;14.08;;;;;;;17.76;69.45;100706.95;127600;1098;24249;-81
2021/06/16 02:22:56;;;;;;;15.05;13.53;;;;;;;17.72;69.50;100715.53;127568;1101;24534;-83
2021/06/16 02:25:26;;;;;;;15.98;13.98;;;;;;;17.67;69.91;100705.47;127535;1101;22385;-82
2021/06/16 02:27:56;;;;;;;19.67;16.83;;;;;;;17.66;70.02;100714.52;127461;1101;22396;-81
2021/06/16 02:30:27;;;;;;;18.45;14.18;;;;;;;17.62;70.29;100715.94;127554;1101;22385;-82
2021/06/16 02:32:57;;;;;;;18.00;16.20;;;;;;;17.59;70.56;100717.19;127426;1101;22404;-81
2021/06/16 02:35:28;;;;;;;17.70;15.30;;;;;;;17.57;70.69;100707.73;127503;1101;24638;-82
2021/06/16 02:38:12;;;;;;;18.85;15.83;;;;;;;17.56;70.51;100712.25;127195;1101;24278;-82
2021/06/16 02:40:43;;;;;;;17.48;15.70;;;;;;;17.52;71.14;100710.18;127426;1101;22843;-83
2021/06/16 02:43:14;;;;;;;19.53;16.27;;;;;;;17.47;71.26;100712.66;127470;1101;24755;-83
2021/06/16 02:45:45;;;;;;;;;;;;;;;17.39;71.22;100708.31;127648;1101;23147;-82
2021/06/16 02:48:21;;;;;;;16.98;14.98;;;;;;;17.35;71.92;100713.23;127899;1100;21271;-82
2021/06/16 02:50:55;;;;;;;18.48;16.48;;;;;;;17.37;71.98;100705.86;127640;1098;22365;-81
2021/06/16 02:53:26;;;;;;;19.50;16.08;;;;;;;17.38;72.26;100710.17;127999;1098;22358;-82
2021/06/16 02:56:03;;;;;;;23.65;16.28;;;;;;;17.40;72.07;100707.31;127964;1095;22352;-81
2021/06/16 02:58:37;;;;;;;20.30;16.88;;;;;;;17.39;72.29;100714.50;128139;1095;22372;-82
2021/06/16 03:01:13;;;;;;;19.90;16.57;;;;;;;17.36;72.29;100709.56;128191;1095;22456;-81
2021/06/16 03:03:51;;;;;;;18.58;16.45;;;;;;;17.34;72.69;100716.95;128136;1095;24508;-82
2021/06/16 03:06:24;;;;;;;17.78;15.10;;;;;;;17.28;72.91;100720.42;128100;1095;24259;-81
2021/06/16 03:08:57;;;;;;;;;;;;;;;17.18;72.73;100714.66;128186;1095;22414;-82
2021/06/16 03:11:30;;;;;;;16.03;14.33;;;;;;;17.12;73.03;100715.45;127972;1098;21263;-81
2021/06/16 03:14:04;;;;;;;15.85;14.20;;;;;;;17.13;73.79;100717.13;127937;1098;22359;-83
2021/06/16 03:16:34;;;;;;;16.55;14.78;;;;;;;17.12;73.46;100715.45;127955;1098;25027;-81
2021/06/16 03:19:06;;;;;;;16.60;14.85;;;;;;;17.12;73.68;100718.13;127975;1098;22360;-81
2021/06/16 03:21:37;;;;;;;;;;;;;;;17.10;73.70;100725.53;127937;1098;22372;-81
2021/06/16 03:24:09;;;;;;;20.05;17.85;;;;;;;17.09;74.02;100722.05;127953;1098;21270;-82
2021/06/16 03:26:41;;;;;;;21.68;18.80;;;;;;;17.14;73.94;100716.91;127938;1095;24544;-81
2021/06/16 03:29:32;;;;;;;19.03;15.90;;;;;;;17.18;73.87;100720.81;128288;1092;22352;-81
2021/06/16 03:32:07;;;;;;;22.28;18.38;;;;;;;17.22;73.70;100718.56;128584;1092;22356;-81
2021/06/16 03:34:38;;;;;;;17.50;15.25;;;;;;;17.25;73.40;100720.83;128378;1092;22350;-80
2021/06/16 03:37:10;;;;;;;27.50;15.60;;;;;;;17.25;73.67;100720.01;128513;1094;24234;-80
2021/06/16 03:39:42;;;;;;;17.38;15.58;;;;;;;17.25;73.50;100728.84;128204;1095;24505;-81
2021/06/16 03:42:13;;;;;;;17.80;14.03;;;;;;;17.27;73.54;100732.14;128120;1095;24518;-81
2021/06/16 03:44:43;;;;;;;15.63;14.00;;;;;;;17.32;73.68;100736.86;128146;1095;22356;-82
2021/06/16 03:47:16;;;;;;;19.45;13.95;;;;;;;17.34;73.65;100740.98;128188;1095;22345;-83
2021/06/16 03:49:48;;;;;;;15.00;13.50;;;;;;;17.34;73.44;100738.31;128224;1095;22356;-83
2021/06/16 03:52:20;;;;;;;20.13;13.33;;;;;;;17.36;73.11;100738.94;128178;1098;22367;-82
2021/06/16 03:54:53;;;;;;;19.03;13.05;;;;;;;17.41;73.40;100752.49;127942;1097;22353;-82
2021/06/16 03:57:23;;;;;;;13.00;11.10;;;;;;;17.45;73.02;100754.77;128012;1095;22352;-82
2021/06/16 03:59:53;;;;;;;11.48;10.28;;;;;;;17.47;73.39;100753.54;128290;1095;23296;-82
2021/06/16 04:02:24;;;;;;;11.40;9.60;;;;;;;17.46;72.34;100754.58;128012;1098;22375;-82
2021/06/16 04:04:59;;;;;;;12.03;8.35;;;;;;;17.45;72.20;100755.58;128093;1098;22456;-84
2021/06/16 04:07:30;;;;;;;10.43;8.15;;;;;;;17.41;71.43;100763.17;127593;1101;22372;-82
2021/06/16 04:10:00;;;;;;;10.70;8.03;;;;;;;17.41;71.29;100754.34;127919;1098;22449;-81
2021/06/16 04:12:31;;;;;;;13.08;7.75;;;;;;;17.40;70.90;100758.87;127916;1098;22302;-82
2021/06/16 04:15:03;;;;;;;10.98;7.08;;;;;;;17.40;70.62;100756.20;127922;1098;22385;-82
2021/06/16 04:17:33;;;;;;;13.75;8.75;;;;;;;17.41;71.04;100757.02;127907;1098;22401;-82
2021/06/16 04:20:07;;;;;;;12.98;8.43;;;;;;;17.43;70.56;100760.32;127908;1095;22359;-81
2021/06/16 04:22:38;;;;;;;8.88;7.48;;;;;;;17.51;70.52;100764.64;128083;1095;22367;-84
2021/06/16 04:25:10;;;;;;;9.00;6.58;;;;;;;17.53;69.64;100762.59;128125;1095;23204;-81
2021/06/16 04:27:41;;;;;;;10.60;6.50;;;;;;;17.58;69.13;100766.28;127875;1098;24537;-82
2021/06/16 04:30:21;;;;;;;8.08;5.80;;;;;;;17.61;68.41;100767.73;127535;1101;22433;-81
2021/06/16 04:32:56;;;;;;;7.75;5.88;;;;;;;17.57;67.05;100767.31;127771;1098;22367;-82
2021/06/16 04:35:26;;;;;;;7.88;5.88;;;;;;;17.58;67.34;100765.47;127964;1098;23074;-82
2021/06/16 04:37:56;;;;;;;10.73;6.20;;;;;;;17.62;66.87;100766.70;128090;1098;22452;-81
2021/06/16 04:40:26;;;;;;;9.60;6.65;;;;;;;17.69;66.11;100766.70;128016;1098;22376;-82
2021/06/16 04:42:56;;;;;;;8.68;4.73;;;;;;;17.72;65.42;100766.30;127408;1101;22396;-81
2021/06/16 04:45:26;;;;;;;8.97;4.90;;;;;;;17.71;64.99;100761.98;127551;1098;22369;-81
2021/06/16 04:47:56;;;;;;;9.23;5.03;;;;;;;17.75;64.38;100768.56;127980;1095;23125;-81
2021/06/16 04:50:26;;;;;;;9.58;5.20;;;;;;;17.82;64.04;100769.41;127898;1098;25031;-82
2021/06/16 04:52:56;;;;;;;7.50;4.83;;;;;;;17.95;63.68;100763.25;127931;1098;25129;-82
2021/06/16 04:55:27;;;;;;;6.57;4.17;;;;;;;18.06;63.00;100762.62;128016;1098;22369;-83
2021/06/16 04:57:57;;;;;;;9.43;4.30;;;;;;;18.16;62.36;100770.22;128129;1098;25034;-83
2021/06/16 05:00:27;;;;;;;6.45;4.03;;;;;;;18.19;61.63;100759.94;127950;1095;22357;-83
2021/06/16 05:02:59;;;;;;;6.33;3.90;;;;;;;18.18;60.53;100773.52;128150;1095;22351;-83
2021/06/16 05:05:29;;;;;;;5.30;3.53;;;;;;;18.21;60.25;100768.58;128148;1095;22457;-82
2021/06/16 05:07:59;;;;;;;6.38;3.88;;;;;;;18.25;60.07;100767.13;128150;1095;22357;-82
2021/06/16 05:10:29;;;;;;;11.38;4.68;;;;;;;18.35;59.58;100775.55;128199;1095;24512;-82
2021/06/16 05:13:00;;;;;;;7.98;3.70;;;;;;;18.43;58.62;100768.36;128237;1095;22343;-81
2021/06/16 05:15:31;;;;;;;5.85;3.48;;;;;;;18.52;58.25;100777.78;128428;1095;22797;-82
2021/06/16 05:18:04;;;;;;;5.10;2.67;;;;;;;18.60;57.46;100774.08;128251;1094;24228;-83
2021/06/16 05:20:34;;;;;;;5.35;3.10;;;;;;;18.68;56.97;100777.33;128555;1094;22388;-84
2021/06/16 05:23:04;;;;;;;6.93;3.15;;;;;;;18.79;56.52;100787.42;128489;1095;22350;-81
2021/06/16 05:25:34;;;;;;;5.40;3.28;;;;;;;18.92;56.04;100793.74;128168;1095;22353;-83
2021/06/16 05:28:04;;;;;;;5.65;3.40;;;;;;;19.09;55.57;100780.70;127968;1098;24559;-83
2021/06/16 05:30:36;;;;;;;6.73;4.35;;;;;;;19.32;55.25;100782.84;127913;1098;23242;-82
2021/06/16 05:33:06;;;;;;;3.43;2.50;;;;;;;19.48;53.79;100785.02;127983;1098;22385;-80
2021/06/16 05:35:36;;;;;;;4.83;2.30;;;;;;;19.64;52.90;100787.22;127959;1098;22365;-82
2021/06/16 05:38:06;;;;;;;5.63;2.53;;;;;;;19.77;51.99;100791.66;127971;1098;22379;-82
2021/06/16 05:40:36;;;;;;;7.33;2.35;;;;;;;19.93;51.47;100784.95;127974;1098;22379;-82
2021/06/16 05:43:06;;;;;;;6.38;1.85;;;;;;;20.21;51.47;100790.66;127917;1095;23244;-82
2021/06/16 05:45:36;;;;;;;4.48;1.83;;;;;;;20.55;50.20;100793.05;127872;1098;22373;-80
2021/06/16 05:48:08;;;;;;;6.63;2.23;;;;;;;20.88;48.99;100785.44;127962;1098;24546;-81
2021/06/16 05:50:38;;;;;;;3.85;2.35;;;;;;;21.29;47.87;100796.48;128014;1098;22391;-81
2021/06/16 05:53:11;;;;;;;7.33;3.90;;;;;;;21.60;46.90;100790.91;127958;1098;22444;-83
2021/06/16 05:55:41;;;;;;;3.10;2.00;;;;;;;22.07;45.99;100799.06;127673;1101;24531;-80
2021/06/16 05:58:12;;;;;;;18.07;2.20;;;;;;;22.51;44.25;100796.85;127887;1100;22385;-81
2021/06/16 06:00:42;;;;;;;4.55;1.70;;;;;;;22.81;42.62;100801.25;127910;1101;25043;-81
2021/06/16 06:03:12;;;;;;;5.23;1.23;;;;;;;23.03;41.57;100806.05;127761;1098;22391;-81
2021/06/16 06:05:42;;;;;;;1.85;1.05;;;;;;;23.24;41.19;100810.77;127957;1098;22378;-83
2021/06/16 06:08:12;;;;;;;3.08;1.28;;;;;;;23.34;39.98;100805.56;127915;1098;22380;-82
2021/06/16 06:10:42;;;;;;;2.58;1.28;;;;;;;23.40;39.71;100801.09;128008;1098;22375;-82
2021/06/16 06:13:12;;;;;;;3.28;1.75;;;;;;;23.40;38.80;100803.80;127981;1095;25082;-83
2021/06/16 06:15:41;;;;;;;4.30;1.68;;;;;;;23.44;39.30;100811.14;128127;1095;22353;-84
2021/06/16 06:18:12;;;;;;;3.70;1.38;;;;;;;23.61;39.33;100799.57;128301;1092;24482;-81
2021/06/16 06:20:42;;;;;;;3.58;1.33;;;;;;;23.83;38.76;100814.02;128205;1095;22343;-81
2021/06/16 06:23:13;;;;;;;3.78;1.55;;;;;;;24.03;38.56;100804.63;128148;1095;22412;-80
2021/06/16 06:25:43;;;;;;;3.35;1.35;;;;;;;24.28;37.65;100806.88;128086;1095;22573;-80
2021/06/16 06:28:15;;;;;;;6.83;1.88;;;;;;;24.28;37.43;100814.98;127929;1098;22394;-79
2021/06/16 06:30:45;;;;;;;6.83;1.90;;;;;;;24.41;37.64;100815.48;127510;1101;22381;-80
2021/06/16 06:33:16;;;;;;;6.13;2.00;;;;;;;24.64;37.26;100814.44;127410;1101;22520;-81
2021/06/16 06:35:45;;;;;;;5.98;2.95;;;;;;;24.85;36.82;100810.11;127429;1101;24533;-80
2021/06/16 06:38:15;;;;;;;5.05;2.60;;;;;;;25.10;37.17;100814.20;127420;1101;22385;-81
2021/06/16 06:40:45;;;;;;;3.03;1.70;;;;;;;25.42;36.34;100816.18;127478;1098;23164;-81
2021/06/16 06:43:17;;;;;;;11.08;2.60;;;;;;;25.69;35.95;100819.72;127843;1098;24634;-80
2021/06/16 06:45:47;;;;;;;12.05;1.95;;;;;;;25.94;35.29;100821.84;127879;1095;22389;-81
2021/06/16 06:48:17;;;;;;;7.73;1.93;;;;;;;26.15;34.88;100813.86;128118;1092;22355;-81
2021/06/16 06:50:47;;;;;;;4.70;1.95;;;;;;;26.31;34.73;100817.50;128479;1092;22334;-82
2021/06/16 06:53:18;;;;;;;5.65;2.13;;;;;;;26.31;34.15;100814.79;128513;1092;22356;-81
2021/06/16 06:55:49;;;;;;;6.85;1.80;;;;;;;26.23;34.33;100819.63;128328;1092;23655;-81
2021/06/16 06:58:21;;;;;;;6.33;2.50;;;;;;;26.28;33.68;100822.34;128478;1092;22346;-80
2021/06/16 07:00:51;;;;;;;5.85;2.63;;;;;;;26.20;34.42;100820.14;128460;1092;22343;-81
2021/06/16 07:03:22;;;;;;;5.30;2.68;;;;;;;26.30;34.52;100819.40;128432;1092;22360;-81
2021/06/16 07:05:52;;;;;;;7.30;2.35;;;;;;;26.40;34.13;100815.94;128458;1092;22413;-80
2021/06/16 07:08:22;;;;;;;4.58;2.40;;;;;;;26.39;34.43;100817.00;128489;1092;22449;-84
2021/06/16 07:10:52;;;;;;;4.28;1.90;;;;;;;26.42;34.40;100813.77;128255;1092;24489;-83
2021/06/16 07:13:22;;;;;;;7.35;2.75;;;;;;;26.56;34.23;100820.41;128547;1092;24164;-82
2021/06/16 07:16:08;;;;;;;5.35;2.48;;;;;;;26.66;34.19;100817.74;128230;1092;22367;-84
2021/06/16 07:18:41;;;;;;;5.88;2.30;;;;;;;26.80;34.26;100826.20;128523;1092;22367;-83
2021/06/16 07:21:11;;;;;;;6.35;2.53;;;;;;;26.99;34.12;100821.95;128542;1092;22327;-83
2021/06/16 07:23:41;;;;;;;5.83;2.70;;;;;;;27.08;33.47;100824.95;128277;1092;22439;-86
2021/06/16 07:26:11;;;;;;;4.07;2.23;;;;;;;27.26;33.72;100817.42;128302;1092;22455;-87
2021/06/16 07:28:42;;;;;;;5.33;2.83;;;;;;;27.44;33.12;100819.65;128274;1095;22408;-87
2021/06/16 07:31:12;;;;;;;5.95;2.63;;;;;;;27.55;33.26;100823.19;128272;1095;22370;-85
2021/06/16 07:33:42;;;;;;;6.00;2.93;;;;;;;27.77;33.27;100818.36;128242;1095;22394;-86
2021/06/16 07:36:13;;;;;;;8.18;2.53;;;;;;;28.05;32.57;100814.27;128239;1095;22371;-86
2021/06/16 07:38:43;;;;;;;5.60;1.98;;;;;;;28.20;32.11;100812.64;128084;1095;25011;-86
2021/06/16 07:41:20;;;;;;;5.83;2.60;;;;;;;28.30;31.68;100804.47;127986;1098;22272;-86
2021/06/16 07:43:50;;;;;;;5.83;2.38;;;;;;;28.60;31.64;100803.59;127963;1098;23848;-86
2021/06/16 07:46:20;;;;;;;11.45;2.55;;;;;;;28.85;31.14;100816.27;128124;1095;22391;-86
2021/06/16 07:48:51;;;;;;;3.85;2.00;;;;;;;28.97;30.70;100813.23;128166;1095;22379;-85
2021/06/16 07:51:22;;;;;;;7.08;2.98;;;;;;;28.95;30.60;100818.93;128214;1095;22312;-85
2021/06/16 07:53:52;;;;;;;8.73;2.90;;;;;;;29.04;30.39;100824.64;128279;1095;24836;-84
2021/06/16 07:56:22;;;;;;;5.73;2.53;;;;;;;28.97;30.27;100815.95;128271;1098;22486;-85
2021/06/16 07:58:52;;;;;;;6.98;2.83;;;;;;;28.93;30.42;100815.70;128257;1095;23950;-84
2021/06/16 08:01:22;;;;;;;4.15;2.73;;;;;;;28.82;30.83;100812.22;128464;1095;24482;-83
2021/06/16 08:03:53;;;;;;;;;;;;;;;28.86;30.62;100817.91;128521;1095;22367;-82
2021/06/16 08:06:23;;;;;;;8.63;3.10;;;;;;;28.82;31.13;100808.66;128517;1095;21261;-83
2021/06/16 08:09:03;;;;;;;5.00;2.35;;;;;;;28.95;30.97;100808.05;128517;1095;22401;-82
2021/06/16 08:11:33;;;;;;;9.43;3.48;;;;;;;29.07;30.97;100807.77;128493;1095;22270;-83
2021/06/16 08:14:04;;;;;;;8.15;3.20;;;;;;;29.12;30.64;100806.91;128314;1095;22350;-84
2021/06/16 08:16:34;;;;;;;7.75;2.68;;;;;;;29.25;30.64;100809.02;128321;1095;22416;-83
2021/06/16 08:19:04;;;;;;;3.88;2.43;;;;;;;29.46;30.19;100799.64;128490;1095;22366;-82
2021/06/16 08:21:34;;;;;;;5.57;2.77;;;;;;;29.62;29.95;100807.70;128226;1095;23852;-83
2021/06/16 08:24:05;;;;;;;8.87;3.07;;;;;;;29.72;29.73;100808.46;128212;1095;22912;-82
2021/06/16 08:26:36;;;;;;;4.45;2.33;;;;;;;29.90;29.47;100809.66;128236;1095;22357;-82
2021/06/16 08:29:06;;;;;;;6.78;2.98;;;;;;;29.88;29.01;100811.03;128227;1095;22341;-82
2021/06/16 08:31:37;;;;;;;5.43;2.88;;;;;;;29.88;29.10;100811.03;128178;1095;22500;-81
2021/06/16 08:34:07;;;;;;;8.65;2.65;;;;;;;29.92;29.10;100802.00;128281;1095;22452;-80
2021/06/16 08:36:38;;;;;;;7.13;3.07;;;;;;;29.91;29.55;100805.02;128229;1095;22671;-77
2021/06/16 08:39:22;;;;;;;5.60;2.48;;;;;;;30.01;29.32;100805.73;128683;1092;24479;-78
2021/06/16 08:41:52;;;;;;;10.40;4.05;;;;;;;30.17;28.91;100805.59;128645;1092;22338;-79
2021/06/16 08:44:22;;;;;;;7.60;3.33;;;;;;;30.16;28.94;100803.98;128669;1092;25040;-77
2021/06/16 08:46:52;;;;;;;6.40;3.18;;;;;;;30.07;29.18;100806.51;128594;1092;23120;-76
2021/06/16 08:49:22;;;;;;;4.65;2.80;;;;;;;30.03;29.50;100799.20;128653;1092;22356;-78
2021/06/16 08:51:52;;;;;;;6.43;3.57;;;;;;;30.01;29.76;100797.56;128652;1092;24480;-78
2021/06/16 08:54:21;;;;;;;8.15;3.50;;;;;;;30.12;29.87;100803.72;128657;1092;24496;-78
2021/06/16 08:56:55;;;;;;;5.10;3.30;;;;;;;30.15;29.52;100805.06;128611;1092;24469;-77
2021/06/16 08:59:25;;;;;;;11.03;3.50;;;;;;;30.13;29.99;100799.11;128618;1092;22351;-78
2021/06/16 09:01:54;;;;;;;10.45;3.45;;;;;;;30.23;29.77;100801.75;128638;1092;24547;-78
2021/06/16 09:04:46;;;;;;;10.58;3.30;;;;;;;30.34;29.82;100816.08;128215;1095;22366;-78
2021/06/16 09:07:28;;;;;;;6.40;3.80;;;;;;;30.40;30.08;100806.75;128310;1095;22349;-78
2021/06/16 09:10:28;;;;;;;4.73;3.10;;;;;;;30.44;29.67;100805.88;128256;1095;24488;-78
2021/06/16 09:13:00;;;;;;;8.48;3.58;;;;;;;30.35;29.82;100807.60;128191;1098;22388;-78
2021/06/16 09:15:31;;;;;;;7.75;3.95;;;;;;;30.26;30.08;100806.63;128293;1098;22378;-78
2021/06/16 09:18:07;;;;;;;7.45;3.75;;;;;;;30.24;30.53;100811.55;128289;1098;22358;-78
2021/06/16 09:20:41;;;;;;;6.03;4.08;;;;;;;30.14;30.25;100806.17;128240;1096;22372;-77
2021/06/16 09:23:31;;;;;;;9.80;4.80;;;;;;;30.07;30.72;100811.15;128186;1095;22380;-78
2021/06/16 09:26:06;;;;;;;10.50;6.13;;;;;;;30.06;31.14;100814.95;128464;1098;23097;-76
2021/06/16 09:28:48;;;;;;;10.98;5.75;;;;;;;29.92;31.38;100807.45;128248;1095;22679;-78
2021/06/16 09:31:21;;;;;;;7.90;4.60;;;;;;;29.80;31.35;100806.22;128265;1098;24237;-78
2021/06/16 09:33:54;;;;;;;5.85;4.28;;;;;;;29.82;31.79;100804.00;128354;1095;24998;-77
2021/06/16 09:36:25;;;;;;;8.33;5.35;;;;;;;30.01;31.58;100807.65;128082;1098;24253;-77
2021/06/16 09:38:55;;;;;;;7.50;4.88;;;;;;;30.16;31.21;100809.43;128222;1098;22523;-77
2021/06/16 09:41:24;;;;;;;10.08;4.88;;;;;;;30.21;30.84;100803.95;128209;1098;22364;-77
2021/06/16 09:43:56;;;;;;;6.75;4.50;;;;;;;30.28;30.59;100807.14;128223;1096;22358;-77
2021/06/16 09:46:26;;;;;;;9.00;4.53;;;;;;;30.19;30.55;100809.70;128193;1097;25117;-78
2021/06/16 09:48:56;;;;;;;9.90;5.70;;;;;;;29.97;30.85;100812.86;128004;1098;22379;-78
2021/06/16 09:51:46;;;;;;;7.60;5.18;;;;;;;29.90;31.02;100808.85;128243;1095;22369;-78
2021/06/16 09:57:03;;;;;;;7.40;3.93;;;;;;;29.93;31.41;100794.66;127923;1098;22371;-78
2021/06/16 09:59:46;;;;;;;8.40;4.38;;;;;;;29.99;31.70;100801.66;127950;1098;23061;-77
2021/06/16 10:02:23;;;;;;;9.80;4.45;;;;;;;29.89;31.15;100799.03;128025;1098;22476;-78
2021/06/16 10:04:57;;;;;;;8.13;3.73;;;;;;;29.85;31.00;100798.80;128007;1098;24525;-77
2021/06/16 10:07:32;;;;;;;9.35;4.78;;;;;;;29.69;31.51;100797.30;128140;1098;22525;-79
2021/06/16 10:10:10;;;;;;;5.65;4.15;;;;;;;29.64;31.87;100797.36;128327;1095;22385;-78
2021/06/16 10:12:46;;;;;;;7.58;4.20;;;;;;;29.72;31.55;100788.56;128328;1095;22362;-78
2021/06/16 10:15:19;;;;;;;9.33;4.15;;;;;;;29.60;31.46;100794.39;128305;1095;22364;-78
2021/06/16 10:17:50;;;;;;;7.70;3.93;;;;;;;29.61;31.93;100792.48;128242;1095;22366;-77
2021/06/16 10:20:21;;;;;;;;;;;;;;;29.68;31.55;100788.33;128220;1095;22557;-78
2021/06/16 10:22:51;;;;;;;12.13;3.73;;;;;;;29.64;31.76;100789.19;128219;1095;21344;-77
2021/06/16 10:25:20;;;;;;;10.03;4.15;;;;;;;29.71;31.81;100792.39;128012;1098;22385;-78
2021/06/16 10:28:00;;;;;;;6.43;4.68;;;;;;;29.72;32.22;100786.67;128004;1098;22370;-77
2021/06/16 10:30:37;;;;;;;6.95;4.08;;;;;;;29.71;31.94;100801.37;128015;1098;22390;-78
2021/06/16 10:33:35;;;;;;;8.45;3.83;;;;;;;29.57;31.78;100792.20;128245;1095;22363;-77
2021/06/16 10:36:28;;;;;;;5.63;4.10;;;;;;;29.36;32.39;100793.43;128311;1095;22250;-78
2021/06/16 10:39:18;;;;;;;8.05;4.20;;;;;;;29.23;32.59;100789.45;128026;1098;22372;-78
2021/06/16 10:41:54;;;;;;;;;;;;;;;29.08;32.20;100780.27;127560;1101;24575;-77
2021/06/16 10:44:30;;;;;;;9.20;3.83;;;;;;;29.05;33.15;100785.47;127860;1098;21270;-77
2021/06/16 10:47:07;;;;;;;7.20;4.83;;;;;;;28.99;32.86;100786.55;127937;1098;22386;-78
2021/06/16 10:49:43;;;;;;;8.00;4.30;;;;;;;28.75;32.83;100784.48;128016;1097;22408;-78
2021/06/16 10:52:15;;;;;;;6.90;4.10;;;;;;;28.58;33.65;100789.45;128049;1098;22391;-76
2021/06/16 10:55:05;;;;;;;7.98;4.68;;;;;;;28.53;33.68;100784.05;128097;1098;24502;-76
2021/06/16 10:57:36;;;;;;;5.93;4.13;;;;;;;28.34;33.97;100775.65;127980;1098;23893;-77
2021/06/16 11:00:14;;;;;;;8.27;4.03;;;;;;;28.22;34.13;100777.84;127947;1097;22371;-77
2021/06/16 11:02:55;;;;;;;10.58;4.55;;;;;;;28.04;34.29;100777.34;127981;1098;22753;-78
2021/06/16 11:05:35;;;;;;;7.45;4.95;;;;;;;27.85;34.60;100774.36;127964;1098;22395;-76
2021/06/16 11:08:05;;;;;;;5.60;4.05;;;;;;;27.77;35.05;100776.83;128017;1098;24544;-76
2021/06/16 11:10:53;;;;;;;6.75;4.48;;;;;;;27.66;35.02;100782.23;127954;1098;24614;-77
2021/06/16 11:13:37;;;;;;;7.55;4.90;;;;;;;27.53;35.33;100777.34;127952;1098;25029;-78
2021/06/16 11:16:46;;;;;;;6.83;4.55;;;;;;;27.51;35.62;100779.50;128027;1095;22516;-78
2021/06/16 11:19:23;;;;;;;10.20;4.73;;;;;;;27.38;35.84;100774.59;128361;1092;22792;-77
2021/06/16 11:21:58;;;;;;;6.13;4.68;;;;;;;27.23;36.12;100788.16;128740;1092;22359;-76
2021/06/16 11:25:15;;;;;;;7.35;4.50;;;;;;;27.07;36.09;100779.94;128652;1092;22340;-77
2021/06/16 11:27:51;;;;;;;7.30;3.90;;;;;;;26.95;36.75;100776.64;128577;1092;22452;-76
2021/06/16 11:31:02;;;;;;;9.20;8.13;;;;;;;26.89;36.68;100775.83;128762;1092;22372;-77
2021/06/16 11:33:35;;;;;;;12.08;5.48;;;;;;;26.86;37.42;100778.27;128212;1095;24183;-76
2021/06/16 11:36:15;;;;;;;6.60;4.40;;;;;;;27.01;37.38;100766.63;128239;1095;22362;-77
2021/06/16 11:39:06;;;;;;;11.03;5.50;;;;;;;27.10;37.20;100765.03;128275;1095;22360;-77
2021/06/16 11:41:42;;;;;;;;;;;;;;;27.10;36.79;100759.61;128275;1095;22351;-77
2021/06/16 11:44:13;;;;;;;8.45;4.75;;;;;;;27.04;37.00;100763.39;128309;1095;21256;-77